Details for Flybe at EGCC




Go Back


Latest METAR
Local Time

EGCC 221750Z AUTO 06007KT 040V100 9999 NCD 18/08 Q1021 NOSIG

22/05/2018, 18:56:33

Description
Results
Flybe Logo
Number of Pilots based at EGCC
1 Pilots Based here
Number of Flybe Flights Departed from EGCC
20 Flights Departed
Number of Flybe Flights Arrived at EGCC
24 Flights Arrived
Number of Flybe Schedules Departing from EGCC
77 Schedules
Number of Flybe Schedules Arriving at EGCC
79 Schedules
Number of Flybe Schedules Departing from EGCC availible today
49 Schedules Today
Number of Flybe Schedules Arriving at EGCC availible today
49 Schedules Today
Average Landing Rate at EGCC
-211 fpm
Flybe Average Landing Rate at EGCC
-206 fpm
Total Fuel Purchased at EGCC by Flybe
18,515.65 kgs / 40,819.60 lbs

Pilots Based at EGCC


Pilot ID
Pilot Name
Pilot Rank
No. of Flights
No. of Flying Hours
Andrew Sutcliffe
367
1389.29
Content